Time;durP1;ratioP1;P1;durP2;ratioP2;P2;SDS_P1;SDS_P2;PMS_P1;PMS_P2;Temp;Humidity;BMP_temperature;BMP_pressure;BME280_temperature;BME280_humidity;BME280_pressure;Samples;Min_cycle;Max_cycle;Signal;HPM_P1;HPM_P2
2021/10/23 00:01:32;;;;;;;0.40;0.30;;;7.60;99.90;;;;;;5004581;28;20432;-69
2021/10/23 00:03:59;;;;;;;0.50;0.40;;;7.60;99.90;;;;;;5004461;28;20058;-68
2021/10/23 00:06:26;;;;;;;0.68;0.30;;;7.60;99.90;;;;;;5000195;28;20049;-65
2021/10/23 00:08:53;;;;;;;4.78;0.50;;;7.60;99.90;;;;;;4993362;28;20415;-64
2021/10/23 00:11:20;;;;;;;2.38;0.95;;;7.60;99.90;;;;;;4998600;28;20578;-66
2021/10/23 00:13:47;;;;;;;2.88;0.70;;;7.60;99.90;;;;;;5005191;28;20111;-65
2021/10/23 00:16:14;;;;;;;5.03;1.10;;;7.70;99.90;;;;;;5006601;28;20560;-69
2021/10/23 00:18:42;;;;;;;2.65;0.47;;;7.70;99.90;;;;;;5001405;28;20045;-65
2021/10/23 00:21:08;;;;;;;0.57;0.57;;;7.70;99.90;;;;;;5006032;28;20073;-67
2021/10/23 00:23:35;;;;;;;1.45;0.60;;;7.70;99.90;;;;;;5006350;28;20130;-67
2021/10/23 00:26:03;;;;;;;2.90;0.55;;;7.70;99.90;;;;;;4998876;28;20069;-65
2021/10/23 00:28:30;;;;;;;2.78;0.38;;;7.70;99.90;;;;;;5003181;28;20116;-64
2021/10/23 00:30:57;;;;;;;2.45;0.75;;;7.70;99.90;;;;;;5004016;28;20045;-64
2021/10/23 00:33:24;;;;;;;0.70;0.47;;;7.80;99.90;;;;;;5005442;28;20164;-67
2021/10/23 00:35:51;;;;;;;1.25;0.50;;;7.80;99.90;;;;;;5003408;28;20091;-67
2021/10/23 00:38:18;;;;;;;1.38;1.02;;;7.80;99.90;;;;;;5004778;28;20045;-67
2021/10/23 00:40:45;;;;;;;1.77;0.38;;;7.80;99.90;;;;;;5003819;28;20451;-66
2021/10/23 00:43:12;;;;;;;1.25;0.47;;;7.80;99.90;;;;;;4999266;28;20069;-66
2021/10/23 00:45:39;;;;;;;2.50;0.95;;;7.80;99.90;;;;;;5002535;28;20407;-69
2021/10/23 00:48:06;;;;;;;4.80;1.35;;;7.90;99.90;;;;;;5004470;28;20100;-65
2021/10/23 00:50:33;;;;;;;2.83;0.32;;;7.90;99.90;;;;;;5002462;28;20119;-65
2021/10/23 00:53:00;;;;;;;2.22;0.60;;;7.90;99.90;;;;;;5004406;28;20124;-68
2021/10/23 00:55:27;;;;;;;2.53;0.77;;;7.90;99.90;;;;;;5002920;28;20080;-65
2021/10/23 00:57:54;;;;;;;3.72;0.52;;;7.90;99.90;;;;;;5003953;28;21620;-67
2021/10/23 01:00:21;;;;;;;1.45;0.40;;;7.90;99.90;;;;;;5003020;28;20774;-66
2021/10/23 01:02:48;;;;;;;0.95;0.40;;;7.90;99.90;;;;;;5002363;28;20140;-67
2021/10/23 01:05:15;;;;;;;5.80;0.70;;;7.90;99.90;;;;;;5001480;28;20075;-65
2021/10/23 01:07:43;;;;;;;1.83;0.57;;;8.00;99.90;;;;;;5001754;28;20140;-66
2021/10/23 01:10:11;;;;;;;0.70;0.45;;;8.00;99.90;;;;;;5003002;28;20042;-69
2021/10/23 01:12:42;;;;;;;1.80;0.45;;;7.90;99.90;;;;;;5003399;28;20081;-65
2021/10/23 01:15:35;;;;;;;1.23;0.30;;;7.90;99.90;;;;;;5009518;28;20091;-68
2021/10/23 01:18:07;;;;;;;1.95;0.57;;;7.90;99.90;;;;;;4997669;28;20085;-65
2021/10/23 01:20:35;;;;;;;1.38;0.28;;;7.90;99.90;;;;;;4997116;28;20065;-65
2021/10/23 01:23:02;;;;;;;1.05;0.30;;;7.90;99.90;;;;;;5001084;28;20042;-64
2021/10/23 01:25:31;;;;;;;6.05;0.77;;;7.90;99.90;;;;;;5007980;28;20049;-65
2021/10/23 01:28:00;;;;;;;2.85;0.40;;;7.90;99.90;;;;;;5002881;28;20491;-66
2021/10/23 01:30:28;;;;;;;2.72;0.70;;;7.90;99.90;;;;;;5011174;28;20732;-65
2021/10/23 01:32:57;;;;;;;2.15;0.38;;;7.90;99.90;;;;;;4996921;28;20066;-65
2021/10/23 01:35:25;;;;;;;3.10;0.68;;;7.90;99.90;;;;;;5001418;28;20046;-67
2021/10/23 01:37:54;;;;;;;3.35;0.40;;;7.90;99.90;;;;;;5013471;28;20192;-66
2021/10/23 01:40:32;;;;;;;3.92;0.70;;;8.00;99.90;;;;;;5004173;28;20051;-68
2021/10/23 01:43:01;;;;;;;0.95;0.30;;;7.90;99.90;;;;;;4997743;28;20637;-64
2021/10/23 01:45:28;;;;;;;2.08;0.40;;;7.90;99.90;;;;;;5009667;28;20046;-65
2021/10/23 01:47:55;;;;;;;1.67;1.38;;;8.00;99.90;;;;;;5003095;28;20065;-67
2021/10/23 01:50:23;;;;;;;0.60;0.43;;;7.90;99.90;;;;;;5002667;28;20142;-66
2021/10/23 01:52:52;;;;;;;2.92;0.90;;;7.90;99.90;;;;;;4998401;28;20069;-66
2021/10/23 01:55:19;;;;;;;1.33;1.00;;;7.90;99.90;;;;;;5000866;28;20050;-64
2021/10/23 01:57:46;;;;;;;3.10;0.73;;;7.80;99.90;;;;;;4996128;28;20199;-65
2021/10/23 02:00:15;;;;;;;2.55;0.30;;;7.80;99.90;;;;;;4998884;28;20127;-67
2021/10/23 02:02:43;;;;;;;0.40;0.30;;;7.80;99.90;;;;;;4999641;28;20092;-66
2021/10/23 02:05:10;;;;;;;1.70;0.50;;;7.80;99.90;;;;;;5001359;28;20053;-69
2021/10/23 02:07:37;;;;;;;5.35;0.50;;;7.80;99.90;;;;;;5002312;28;20137;-67
2021/10/23 02:10:06;;;;;;;1.85;0.60;;;7.80;99.90;;;;;;5002276;28;20050;-67
2021/10/23 02:12:34;;;;;;;1.20;0.50;;;7.80;99.90;;;;;;5012651;28;20076;-65
2021/10/23 02:15:02;;;;;;;0.70;0.30;;;7.80;99.90;;;;;;4995693;28;20053;-69
2021/10/23 02:17:29;;;;;;;1.70;0.35;;;7.80;99.90;;;;;;5000734;28;20598;-65
2021/10/23 02:19:56;;;;;;;0.85;0.60;;;7.80;99.90;;;;;;5006995;28;20137;-64
2021/10/23 02:22:22;;;;;;;1.00;0.30;;;7.80;99.90;;;;;;4997987;28;20415;-67
2021/10/23 02:24:49;;;;;;;1.25;0.40;;;7.80;99.90;;;;;;5003564;28;20595;-64
2021/10/23 02:27:16;;;;;;;2.20;0.60;;;7.80;99.90;;;;;;5006801;28;20070;-64
2021/10/23 02:29:43;;;;;;;1.45;0.60;;;7.80;99.90;;;;;;4979078;28;20081;-66
2021/10/23 02:32:10;;;;;;;0.73;0.38;;;7.80;99.90;;;;;;5002948;28;20149;-65
2021/10/23 02:34:38;;;;;;;3.40;0.45;;;7.80;99.90;;;;;;5003803;28;20050;-66
2021/10/23 02:37:05;;;;;;;0.88;0.50;;;7.80;99.90;;;;;;5009012;28;20057;-68
2021/10/23 02:39:32;;;;;;;3.63;0.40;;;7.80;99.90;;;;;;5005466;28;20472;-67
2021/10/23 02:41:59;;;;;;;0.75;0.30;;;7.80;99.90;;;;;;5005718;28;20149;-65
2021/10/23 02:44:26;;;;;;;0.63;0.40;;;7.80;99.90;;;;;;5005066;28;20119;-67
2021/10/23 02:46:53;;;;;;;2.70;0.50;;;7.80;99.90;;;;;;5003888;28;20057;-64
2021/10/23 02:49:20;;;;;;;3.10;0.68;;;7.80;99.90;;;;;;5002078;28;20077;-66
2021/10/23 02:51:47;;;;;;;2.08;0.57;;;7.80;99.90;;;;;;5006933;28;20046;-67
2021/10/23 02:54:14;;;;;;;3.30;0.65;;;7.80;99.90;;;;;;5008964;28;20452;-64
2021/10/23 02:56:41;;;;;;;1.90;0.43;;;7.80;99.90;;;;;;5001616;28;20137;-71
2021/10/23 02:59:12;;;;;;;0.35;0.30;;;7.80;99.90;;;;;;4999430;28;20041;-66
2021/10/23 03:01:39;;;;;;;1.38;0.50;;;7.80;99.90;;;;;;5010792;28;20045;-67
2021/10/23 03:04:06;;;;;;;2.90;0.32;;;7.70;99.90;;;;;;5005704;28;20072;-64
2021/10/23 03:06:33;;;;;;;0.68;0.55;;;7.70;99.90;;;;;;5002982;28;20059;-69
2021/10/23 03:09:00;;;;;;;3.30;0.50;;;7.70;99.90;;;;;;5003520;28;20046;-67
2021/10/23 03:11:27;;;;;;;2.30;0.60;;;7.70;99.90;;;;;;5009644;28;20058;-64
2021/10/23 03:13:56;;;;;;;5.45;0.80;;;7.70;99.90;;;;;;5006577;28;20049;-66
2021/10/23 03:16:23;;;;;;;1.38;0.43;;;7.60;99.90;;;;;;5016545;28;20103;-68
2021/10/23 03:18:51;;;;;;;2.30;0.70;;;7.60;99.90;;;;;;5004358;28;20050;-66
2021/10/23 03:21:19;;;;;;;1.60;0.50;;;7.60;99.90;;;;;;5003150;28;20042;-67
2021/10/23 03:23:47;;;;;;;1.75;0.70;;;7.60;99.90;;;;;;5003813;28;20041;-65
2021/10/23 03:26:14;;;;;;;2.35;2.15;;;7.50;99.90;;;;;;4998485;28;20137;-66
2021/10/23 03:28:44;;;;;;;4.15;1.27;;;7.50;99.90;;;;;;5003823;28;20076;-68
2021/10/23 03:31:11;;;;;;;1.65;0.60;;;7.50;99.90;;;;;;5003905;28;20073;-66
2021/10/23 03:33:38;;;;;;;2.22;0.65;;;7.50;99.90;;;;;;5003293;28;20073;-65
2021/10/23 03:36:05;;;;;;;2.47;0.85;;;7.40;99.90;;;;;;5004793;28;20100;-64
2021/10/23 03:38:34;;;;;;;0.90;0.60;;;7.40;99.90;;;;;;5007481;28;20562;-64
2021/10/23 03:41:02;;;;;;;0.75;0.60;;;7.40;99.90;;;;;;5004651;28;20104;-65
2021/10/23 03:43:29;;;;;;;0.30;0.30;;;7.40;99.90;;;;;;5009392;28;20136;-71
2021/10/23 03:45:56;;;;;;;2.97;0.60;;;7.30;99.90;;;;;;5013437;28;20069;-64
2021/10/23 03:48:23;;;;;;;2.40;0.85;;;7.30;99.90;;;;;;5006435;28;20188;-66
2021/10/23 03:50:50;;;;;;;3.67;0.93;;;7.30;99.90;;;;;;5003126;28;20052;-67
2021/10/23 03:53:18;;;;;;;0.95;0.80;;;7.30;99.90;;;;;;5002909;28;20112;-65
2021/10/23 03:55:48;;;;;;;0.93;0.57;;;7.20;99.90;;;;;;5002346;28;20133;-64
2021/10/23 03:58:15;;;;;;;1.23;0.43;;;7.20;99.90;;;;;;5005141;28;20107;-65
2021/10/23 04:00:43;;;;;;;1.38;0.82;;;7.00;99.90;;;;;;5000732;28;20457;-64
2021/10/23 04:03:10;;;;;;;0.88;0.80;;;6.90;99.90;;;;;;5001323;28;20583;-67
2021/10/23 04:05:37;;;;;;;1.15;0.60;;;6.60;99.90;;;;;;5004337;28;20042;-66
2021/10/23 04:08:05;;;;;;;1.35;1.20;;;6.50;99.90;;;;;;4997005;28;20564;-67
2021/10/23 04:10:31;;;;;;;1.05;0.80;;;6.40;99.90;;;;;;4999738;28;20081;-67
2021/10/23 04:12:58;;;;;;;3.50;1.00;;;6.40;99.90;;;;;;5003831;28;20664;-66
2021/10/23 04:15:25;;;;;;;2.78;1.17;;;6.40;99.90;;;;;;5013970;28;20671;-66
2021/10/23 04:17:52;;;;;;;2.90;0.80;;;6.30;99.90;;;;;;4985131;28;20137;-65
2021/10/23 04:20:20;;;;;;;2.15;0.68;;;6.30;99.90;;;;;;5003485;28;20051;-64
2021/10/23 04:22:47;;;;;;;1.17;0.80;;;6.40;99.90;;;;;;4995929;28;20135;-65
2021/10/23 04:25:14;;;;;;;2.15;0.70;;;6.30;99.90;;;;;;5004806;28;20061;-66
2021/10/23 04:27:41;;;;;;;1.42;0.90;;;6.30;99.90;;;;;;5002879;28;20212;-66
2021/10/23 04:30:08;;;;;;;1.10;0.65;;;6.30;99.90;;;;;;5008736;28;20046;-66
2021/10/23 04:32:35;;;;;;;2.13;1.00;;;6.30;99.90;;;;;;5009675;28;20065;-66
2021/10/23 04:35:03;;;;;;;1.85;1.05;;;6.30;99.90;;;;;;5002202;28;20049;-67
2021/10/23 04:37:31;;;;;;;2.13;1.08;;;6.30;99.90;;;;;;4992382;28;20112;-65
2021/10/23 04:39:58;;;;;;;2.58;1.27;;;6.30;99.90;;;;;;5004222;28;20100;-65
2021/10/23 04:42:26;;;;;;;2.60;0.60;;;6.30;99.90;;;;;;5002424;28;20650;-65
2021/10/23 04:44:53;;;;;;;1.10;0.60;;;6.30;99.90;;;;;;5004011;28;20049;-65
2021/10/23 04:47:20;;;;;;;0.60;0.60;;;6.30;99.90;;;;;;4996807;28;20077;-66
2021/10/23 04:49:47;;;;;;;1.00;0.90;;;6.20;99.90;;;;;;5002330;28;20066;-65
2021/10/23 04:52:14;;;;;;;1.30;0.70;;;6.20;99.90;;;;;;5002385;28;20145;-65
2021/10/23 04:54:40;;;;;;;4.03;1.23;;;6.20;99.90;;;;;;5003034;28;20132;-65
2021/10/23 04:57:08;;;;;;;2.00;0.52;;;6.10;99.90;;;;;;5001509;28;20050;-65
2021/10/23 04:59:34;;;;;;;3.90;0.60;;;6.20;99.90;;;;;;5002677;28;20144;-67
2021/10/23 05:02:01;;;;;;;1.35;0.50;;;6.20;99.90;;;;;;5004602;28;20070;-68
2021/10/23 05:04:35;;;;;;;1.85;0.60;;;6.20;99.90;;;;;;5022887;28;20445;-66
2021/10/23 05:07:02;;;;;;;1.35;0.77;;;6.20;99.90;;;;;;5018713;28;20065;-66
2021/10/23 05:09:29;;;;;;;0.85;0.85;;;6.20;99.90;;;;;;5016692;28;20045;-66
2021/10/23 05:11:56;;;;;;;1.02;0.80;;;6.20;99.90;;;;;;5020209;28;20046;-65
2021/10/23 05:14:23;;;;;;;1.38;0.70;;;6.10;99.90;;;;;;5017662;28;20103;-65
2021/10/23 05:16:50;;;;;;;2.67;0.95;;;6.10;99.90;;;;;;5016598;28;20459;-66
2021/10/23 05:19:17;;;;;;;1.55;0.60;;;6.00;99.90;;;;;;5018587;28;20061;-65
2021/10/23 05:21:44;;;;;;;2.00;1.10;;;6.00;99.90;;;;;;5019390;28;20522;-65
2021/10/23 05:24:11;;;;;;;1.50;0.98;;;5.90;99.90;;;;;;5011452;28;20454;-66
2021/10/23 05:26:38;;;;;;;1.50;0.95;;;5.80;99.90;;;;;;5005879;28;20188;-68
2021/10/23 05:29:04;;;;;;;1.27;0.85;;;5.80;99.90;;;;;;5004033;28;20425;-65
2021/10/23 05:31:31;;;;;;;6.10;0.68;;;5.80;99.90;;;;;;5009801;28;20547;-64
2021/10/23 05:33:58;;;;;;;1.15;0.60;;;5.70;99.90;;;;;;5008887;28;20038;-65
2021/10/23 05:36:25;;;;;;;1.77;0.60;;;5.70;99.90;;;;;;5017583;28;20436;-65
2021/10/23 05:38:52;;;;;;;2.13;1.13;;;5.60;99.90;;;;;;5015599;28;20054;-66
2021/10/23 05:41:19;;;;;;;0.55;0.50;;;5.50;99.90;;;;;;5017102;28;20042;-65
2021/10/23 05:43:46;;;;;;;1.05;0.57;;;5.50;99.90;;;;;;5015288;28;20720;-68
2021/10/23 05:46:13;;;;;;;1.08;0.63;;;5.50;99.90;;;;;;5017207;28;20100;-65
2021/10/23 05:48:40;;;;;;;1.73;0.70;;;5.50;99.90;;;;;;5015776;28;20099;-67
2021/10/23 05:51:07;;;;;;;1.90;0.70;;;5.40;99.90;;;;;;5014300;28;20054;-65
2021/10/23 05:53:34;;;;;;;5.45;1.42;;;5.40;99.90;;;;;;5016821;28;20431;-65
2021/10/23 05:56:01;;;;;;;0.40;0.40;;;5.30;99.90;;;;;;5018420;28;20127;-66
2021/10/23 05:58:29;;;;;;;3.00;0.80;;;5.30;99.90;;;;;;5008771;28;20163;-65
2021/10/23 06:01:03;;;;;;;0.65;0.50;;;5.30;99.90;;;;;;5017291;28;20638;-66
2021/10/23 06:03:32;;;;;;;3.72;0.85;;;5.30;99.90;;;;;;5010711;28;20386;-64
2021/10/23 06:05:59;;;;;;;1.40;0.60;;;5.30;99.90;;;;;;5014750;28;20499;-64
2021/10/23 06:08:26;;;;;;;2.20;0.90;;;5.30;99.90;;;;;;5011322;28;20474;-69
2021/10/23 06:10:53;;;;;;;3.03;0.75;;;5.30;99.90;;;;;;5013875;28;20111;-67
2021/10/23 06:13:22;;;;;;;3.55;0.77;;;5.20;99.90;;;;;;5015433;28;20066;-65
2021/10/23 06:15:50;;;;;;;0.60;0.40;;;5.20;99.90;;;;;;5000487;28;20486;-66
2021/10/23 06:18:18;;;;;;;1.88;0.50;;;5.20;99.90;;;;;;5004701;28;20045;-71
2021/10/23 06:20:46;;;;;;;2.53;0.93;;;5.20;99.90;;;;;;4998007;28;20082;-68
2021/10/23 06:23:13;;;;;;;1.30;0.57;;;5.20;99.90;;;;;;5001908;28;20054;-67
2021/10/23 06:25:40;;;;;;;2.10;1.20;;;5.20;99.90;;;;;;5000686;28;20080;-65
2021/10/23 06:28:07;;;;;;;1.20;0.93;;;5.20;99.90;;;;;;5002899;28;20046;-66
2021/10/23 06:30:34;;;;;;;1.83;1.38;;;5.20;99.90;;;;;;4999136;28;20081;-66
2021/10/23 06:33:01;;;;;;;1.38;0.60;;;5.20;99.90;;;;;;4999014;28;20096;-65
2021/10/23 06:35:28;;;;;;;1.55;1.00;;;5.20;99.90;;;;;;5001351;28;20112;-65
2021/10/23 06:37:54;;;;;;;1.70;0.63;;;5.20;99.90;;;;;;4998643;28;20120;-65
2021/10/23 06:40:21;;;;;;;2.05;0.55;;;5.20;99.90;;;;;;4996163;28;20757;-65
2021/10/23 06:42:48;;;;;;;0.98;0.70;;;5.20;99.90;;;;;;4997285;28;21391;-65
2021/10/23 06:45:16;;;;;;;1.17;1.05;;;5.20;99.90;;;;;;5002465;28;20088;-65
2021/10/23 06:47:43;;;;;;;2.95;0.85;;;5.20;99.90;;;;;;5001768;28;20495;-67
2021/10/23 06:50:12;;;;;;;2.70;0.82;;;5.10;99.90;;;;;;5000419;28;20080;-64
2021/10/23 06:52:39;;;;;;;1.80;0.93;;;5.10;99.90;;;;;;4998080;28;20103;-66
2021/10/23 06:55:07;;;;;;;1.10;1.00;;;5.00;99.90;;;;;;5002305;28;20120;-70
2021/10/23 06:57:34;;;;;;;3.60;0.80;;;5.10;99.90;;;;;;4995009;28;20100;-65
2021/10/23 07:00:01;;;;;;;2.78;0.95;;;5.00;99.90;;;;;;4998414;28;20074;-65
2021/10/23 07:02:28;;;;;;;0.68;0.60;;;5.10;99.90;;;;;;4999933;28;20066;-64
2021/10/23 07:04:55;;;;;;;2.17;0.80;;;5.10;99.90;;;;;;4998287;28;20042;-66
2021/10/23 07:07:23;;;;;;;0.90;0.90;;;5.10;99.90;;;;;;4997557;28;20098;-64
2021/10/23 07:09:50;;;;;;;4.28;1.00;;;5.10;99.90;;;;;;4996180;28;20140;-67
2021/10/23 07:12:17;;;;;;;1.02;0.60;;;5.10;99.90;;;;;;5002501;28;20080;-65
2021/10/23 07:14:44;;;;;;;2.58;1.23;;;5.10;99.90;;;;;;4996880;28;20122;-65
2021/10/23 07:17:11;;;;;;;4.45;1.25;;;5.20;99.90;;;;;;4999267;28;20529;-66
2021/10/23 07:19:38;;;;;;;1.98;0.77;;;5.10;99.90;;;;;;4999611;28;20046;-65
2021/10/23 07:22:05;;;;;;;2.47;0.82;;;5.20;99.90;;;;;;5000033;28;20192;-65
2021/10/23 07:24:31;;;;;;;1.40;0.90;;;5.10;99.90;;;;;;4998892;28;20128;-64
2021/10/23 07:26:58;;;;;;;1.15;0.60;;;5.10;99.90;;;;;;4999720;28;20100;-64
2021/10/23 07:29:25;;;;;;;1.23;0.73;;;5.10;99.90;;;;;;4997279;28;20038;-66
2021/10/23 07:31:52;;;;;;;5.65;0.70;;;5.20;99.90;;;;;;5003815;28;20104;-65
2021/10/23 07:34:19;;;;;;;1.27;0.93;;;5.10;99.90;;;;;;5000892;28;20510;-66
2021/10/23 07:36:46;;;;;;;1.00;0.77;;;5.20;99.90;;;;;;4997189;28;20069;-66
2021/10/23 07:39:13;;;;;;;5.05;0.88;;;5.20;99.90;;;;;;5005203;28;20716;-69
2021/10/23 07:41:41;;;;;;;4.03;0.80;;;5.20;99.90;;;;;;5000735;28;20157;-65
2021/10/23 07:44:12;;;;;;;1.05;0.73;;;5.30;99.90;;;;;;4998804;28;20049;-65
2021/10/23 07:46:39;;;;;;;3.85;0.75;;;5.30;99.90;;;;;;5000591;28;20077;-66
2021/10/23 07:49:07;;;;;;;2.65;1.00;;;5.20;99.90;;;;;;4999723;28;20528;-65
2021/10/23 07:51:38;;;;;;;0.50;0.50;;;5.20;99.90;;;;;;4999622;28;20042;-65
2021/10/23 07:54:05;;;;;;;;;;;5.30;99.90;;;;;;5006066;28;20108;-65
2021/10/23 07:56:32;;;;;;;2.97;1.10;;;5.30;99.90;;;;;;4998320;28;19972;-71
2021/10/23 07:58:59;;;;;;;0.88;0.73;;;5.30;99.90;;;;;;4996915;28;20065;-67
2021/10/23 08:01:27;;;;;;;3.30;0.63;;;5.30;99.90;;;;;;5002629;28;20057;-70
2021/10/23 08:03:55;;;;;;;3.10;1.30;;;5.30;99.90;;;;;;4996263;28;20050;-64
2021/10/23 08:06:22;;;;;;;5.05;1.48;;;5.30;99.90;;;;;;5008465;28;20126;-65
2021/10/23 08:08:49;;;;;;;2.42;0.63;;;5.40;99.90;;;;;;5007839;28;20085;-65
2021/10/23 08:11:16;;;;;;;8.18;1.80;;;5.30;99.90;;;;;;4998540;28;20043;-66
2021/10/23 08:13:43;;;;;;;1.85;0.90;;;5.30;99.90;;;;;;5000394;28;20193;-69
2021/10/23 08:16:10;;;;;;;1.40;1.10;;;5.30;99.90;;;;;;4997356;28;20057;-67
2021/10/23 08:18:37;;;;;;;0.80;0.75;;;5.30;99.90;;;;;;4996627;28;20064;-64
2021/10/23 08:21:04;;;;;;;0.80;0.73;;;5.30;99.90;;;;;;5001965;28;20050;-64
2021/10/23 08:23:31;;;;;;;3.40;1.00;;;5.30;99.90;;;;;;4997307;28;20070;-65
2021/10/23 08:26:00;;;;;;;3.42;0.70;;;5.30;99.90;;;;;;5005145;28;20049;-65
2021/10/23 08:28:27;;;;;;;3.83;0.68;;;5.40;99.90;;;;;;5003566;28;20091;-65
2021/10/23 08:30:54;;;;;;;2.13;0.98;;;5.30;99.90;;;;;;4996220;28;20178;-64
2021/10/23 08:33:21;;;;;;;1.90;1.30;;;5.30;99.90;;;;;;4997322;28;20057;-65
2021/10/23 08:35:47;;;;;;;2.67;0.95;;;5.40;99.90;;;;;;4996826;28;20054;-70
2021/10/23 08:38:14;;;;;;;1.13;0.90;;;5.30;99.90;;;;;;4995497;28;20422;-66
2021/10/23 08:40:41;;;;;;;1.45;1.02;;;5.40;99.90;;;;;;4993723;28;20053;-64
2021/10/23 08:43:10;;;;;;;1.92;0.80;;;5.40;99.90;;;;;;4997402;28;20068;-64
2021/10/23 08:45:38;;;;;;;0.90;0.70;;;5.40;99.90;;;;;;4994718;28;20101;-65
2021/10/23 08:48:06;;;;;;;1.90;0.82;;;5.40;99.90;;;;;;4996708;28;21177;-65
2021/10/23 08:50:35;;;;;;;2.25;0.75;;;5.40;99.90;;;;;;4997940;28;20049;-64
2021/10/23 08:53:03;;;;;;;0.75;0.75;;;5.40;99.90;;;;;;4992552;28;20113;-64
2021/10/23 08:55:30;;;;;;;1.38;1.08;;;5.50;99.90;;;;;;4995383;28;20057;-67
2021/10/23 08:57:58;;;;;;;1.95;0.90;;;5.50;99.90;;;;;;4992050;28;20052;-67
2021/10/23 09:00:25;;;;;;;1.58;0.88;;;5.50;99.90;;;;;;4988807;28;20081;-69
2021/10/23 09:02:52;;;;;;;2.00;1.27;;;5.50;99.90;;;;;;4984728;28;20060;-70
2021/10/23 09:05:21;;;;;;;1.90;1.23;;;5.50;99.90;;;;;;4992877;28;20056;-65
2021/10/23 09:07:52;;;;;;;1.50;1.42;;;5.50;99.90;;;;;;4993105;28;20045;-67
2021/10/23 09:10:25;;;;;;;1.67;0.22;;;5.50;99.90;;;;;;4989178;28;20077;-66
2021/10/23 09:13:07;;;;;;;1.02;0.75;;;5.40;99.90;;;;;;4989886;28;20939;-66
2021/10/23 09:15:39;;;;;;;1.73;0.60;;;5.40;99.90;;;;;;5002398;28;20041;-69
2021/10/23 09:18:07;;;;;;;1.67;0.73;;;5.40;99.90;;;;;;4998699;28;20070;-64
2021/10/23 09:20:42;;;;;;;1.85;0.80;;;5.50;99.90;;;;;;4997589;28;20103;-67
2021/10/23 09:23:21;;;;;;;1.05;0.90;;;5.50;99.90;;;;;;4992759;28;20090;-68
2021/10/23 09:25:51;;;;;;;2.35;1.20;;;5.60;99.90;;;;;;4998187;28;20057;-65
2021/10/23 09:28:31;;;;;;;1.20;0.97;;;5.60;99.90;;;;;;4999289;28;20070;-64
2021/10/23 09:30:58;;;;;;;0.80;0.77;;;5.60;99.90;;;;;;4988483;28;20302;-65
2021/10/23 09:33:27;;;;;;;3.22;0.60;;;5.50;99.90;;;;;;4991546;28;20161;-67
2021/10/23 09:35:57;;;;;;;0.93;0.75;;;5.50;99.90;;;;;;4999938;28;20104;-67
2021/10/23 09:38:27;;;;;;;5.10;1.05;;;5.50;99.90;;;;;;4995923;28;20049;-67
2021/10/23 09:40:56;;;;;;;0.93;0.70;;;5.50;99.90;;;;;;4990481;28;20046;-66
2021/10/23 09:43:23;;;;;;;1.08;0.80;;;5.60;99.90;;;;;;4998119;28;20141;-65
2021/10/23 09:46:02;;;;;;;1.27;0.68;;;5.60;99.90;;;;;;4996516;28;20097;-64
2021/10/23 09:48:56;;;;;;;2.05;0.85;;;5.70;99.90;;;;;;4999494;28;20066;-70
2021/10/23 09:51:25;;;;;;;1.27;0.50;;;5.70;99.90;;;;;;4999083;28;20149;-70
2021/10/23 09:54:01;;;;;;;1.80;0.50;;;5.60;99.90;;;;;;5002267;28;20093;-68
2021/10/23 09:56:38;;;;;;;2.53;0.90;;;5.60;99.90;;;;;;4998386;28;20711;-66
2021/10/23 09:59:11;;;;;;;2.67;0.93;;;5.70;99.90;;;;;;4993546;28;20054;-65
2021/10/23 10:01:42;;;;;;;1.05;0.93;;;5.70;99.90;;;;;;4998915;28;20039;-68
2021/10/23 10:04:12;;;;;;;3.72;0.93;;;5.80;99.90;;;;;;5001047;28;20070;-65
2021/10/23 10:06:43;;;;;;;2.83;1.42;;;5.70;99.90;;;;;;5004024;28;20100;-67
2021/10/23 10:09:11;;;;;;;1.13;0.73;;;5.70;99.90;;;;;;4997421;28;20112;-70
2021/10/23 10:11:39;;;;;;;1.30;1.25;;;5.80;99.90;;;;;;4999510;28;20054;-65
2021/10/23 10:14:09;;;;;;;2.05;0.82;;;5.70;99.90;;;;;;5001503;28;20268;-69
2021/10/23 10:16:46;;;;;;;2.10;0.95;;;5.60;99.90;;;;;;5000961;28;20045;-68
2021/10/23 10:19:13;;;;;;;0.50;0.50;;;5.60;99.90;;;;;;5002216;28;20062;-67
2021/10/23 10:21:42;;;;;;;1.73;0.98;;;5.70;99.90;;;;;;5001774;28;20487;-64
2021/10/23 10:24:18;;;;;;;0.85;0.73;;;5.80;99.90;;;;;;5005133;28;20128;-68
2021/10/23 10:27:00;;;;;;;4.78;0.98;;;5.70;99.90;;;;;;4998859;28;20083;-64
2021/10/23 10:29:49;;;;;;;1.00;0.77;;;5.80;99.90;;;;;;4994376;28;20054;-64
2021/10/23 10:42:55;;;;;;;2.58;0.65;;;5.90;99.90;;;;;;5000331;28;20050;-72
2021/10/23 10:45:22;;;;;;;1.50;1.13;;;5.90;99.90;;;;;;5002181;28;20070;-68
2021/10/23 10:48:21;;;;;;;1.80;1.17;;;5.90;99.90;;;;;;4993383;28;20058;-65
2021/10/23 10:50:52;;;;;;;2.00;0.88;;;5.90;99.90;;;;;;4997481;28;20054;-65
2021/10/23 10:53:26;;;;;;;2.85;0.82;;;5.90;99.90;;;;;;4988575;28;20050;-69
2021/10/23 10:55:58;;;;;;;2.22;0.98;;;5.90;99.90;;;;;;4997754;28;20049;-66
2021/10/23 10:59:00;;;;;;;4.20;0.88;;;5.90;99.90;;;;;;4996181;28;20115;-68
2021/10/23 11:01:34;;;;;;;0.82;0.63;;;5.90;99.90;;;;;;4992393;28;20046;-66
2021/10/23 11:04:06;;;;;;;4.03;0.57;;;5.90;99.90;;;;;;4994854;28;20133;-65
2021/10/23 11:06:36;;;;;;;4.38;1.17;;;5.90;99.90;;;;;;4991564;28;20401;-65
2021/10/23 11:09:12;;;;;;;0.60;0.60;;;5.80;99.90;;;;;;4996269;28;20159;-67
2021/10/23 11:11:48;;;;;;;2.72;0.80;;;5.80;99.90;;;;;;5004654;28;20069;-66
2021/10/23 11:14:24;;;;;;;0.88;0.75;;;5.80;99.90;;;;;;5000812;28;20069;-67
2021/10/23 11:16:54;;;;;;;3.83;0.73;;;5.90;99.90;;;;;;4999166;28;20047;-64
2021/10/23 11:19:31;;;;;;;;;;;5.90;99.90;;;;;;5005841;28;20056;-64
2021/10/23 11:22:14;;;;;;;0.70;0.70;;;5.80;99.90;;;;;;4997067;28;20535;-65
2021/10/23 11:24:45;;;;;;;0.75;0.70;;;5.80;99.90;;;;;;4992653;28;20060;-64
2021/10/23 11:27:35;;;;;;;2.13;0.80;;;5.80;99.90;;;;;;4998269;28;20097;-69
2021/10/23 11:30:11;;;;;;;1.42;1.13;;;5.90;99.90;;;;;;4998509;28;20125;-71
2021/10/23 11:32:56;;;;;;;3.00;2.08;;;6.00;99.90;;;;;;4993758;28;20401;-65
2021/10/23 11:35:39;;;;;;;0.60;0.55;;;6.00;99.90;;;;;;4998749;28;20038;-67
2021/10/23 11:38:27;;;;;;;2.00;0.73;;;6.00;99.90;;;;;;4997394;28;20042;-65
2021/10/23 11:41:01;;;;;;;1.60;1.02;;;5.90;99.90;;;;;;5005019;28;20050;-65
2021/10/23 11:43:33;;;;;;;2.20;1.15;;;5.90;99.90;;;;;;4999863;28;20407;-65
2021/10/23 11:46:01;;;;;;;7.03;1.00;;;5.90;99.90;;;;;;5002708;28;20118;-63
2021/10/23 11:48:28;;;;;;;7.47;1.05;;;5.90;99.90;;;;;;5004103;28;20049;-64
2021/10/23 11:50:56;;;;;;;1.05;0.80;;;5.90;99.90;;;;;;4996700;28;20072;-64
2021/10/23 11:53:29;;;;;;;1.15;0.73;;;5.90;99.90;;;;;;4990976;28;20077;-71
2021/10/23 11:56:00;;;;;;;1.52;0.70;;;5.90;99.90;;;;;;4998622;28;20474;-66
2021/10/23 11:58:31;;;;;;;1.45;0.40;;;5.80;99.90;;;;;;4993477;28;20058;-67
2021/10/23 12:01:10;;;;;;;1.77;0.95;;;5.70;99.90;;;;;;4973801;28;20448;-64
2021/10/23 12:03:44;;;;;;;1.27;0.77;;;5.80;99.90;;;;;;4975064;28;20042;-67
2021/10/23 12:06:25;;;;;;;0.95;0.82;;;5.80;99.90;;;;;;4994472;28;20053;-67
2021/10/23 12:08:53;;;;;;;1.83;0.90;;;5.80;99.90;;;;;;4976025;28;20058;-64
2021/10/23 12:11:24;;;;;;;2.45;0.77;;;5.80;99.90;;;;;;4981150;28;20058;-67
2021/10/23 12:14:05;;;;;;;1.20;0.68;;;5.80;99.90;;;;;;4977656;28;20108;-64
2021/10/23 12:16:45;;;;;;;;;;;5.80;99.90;;;;;;4975305;28;20054;-65
2021/10/23 12:19:32;;;;;;;2.60;0.60;;;5.90;99.90;;;;;;4985480;28;20043;-67
2021/10/23 12:22:05;;;;;;;0.95;0.30;;;5.90;99.90;;;;;;4982730;28;20050;-64
2021/10/23 12:24:42;;;;;;;2.25;0.65;;;5.90;99.90;;;;;;4973994;28;20551;-64
2021/10/23 12:27:23;;;;;;;3.55;1.17;;;5.90;99.90;;;;;;4982923;28;20051;-66
2021/10/23 12:29:59;;;;;;;2.30;0.70;;;5.90;99.90;;;;;;4981669;28;20547;-66
2021/10/23 12:32:41;;;;;;;3.30;0.90;;;6.00;99.90;;;;;;4977406;28;20082;-68
2021/10/23 12:35:10;;;;;;;1.73;1.23;;;6.00;99.90;;;;;;4982955;28;20169;-64
2021/10/23 12:37:45;;;;;;;2.10;0.73;;;6.00;99.90;;;;;;4995162;28;20112;-65
2021/10/23 12:40:35;;;;;;;4.65;1.23;;;5.90;99.90;;;;;;4992082;28;20556;-66
2021/10/23 12:43:06;;;;;;;1.88;1.23;;;5.90;99.90;;;;;;4970184;28;20146;-66
2021/10/23 12:45:39;;;;;;;0.70;0.70;;;6.00;99.90;;;;;;4975553;28;20430;-65
2021/10/23 12:48:12;;;;;;;2.00;1.00;;;5.90;99.90;;;;;;4968162;28;20109;-70
2021/10/23 12:50:41;;;;;;;3.90;0.75;;;5.80;99.90;;;;;;4980647;28;20187;-65
2021/10/23 12:53:09;;;;;;;4.03;2.03;;;5.80;99.90;;;;;;4975545;28;20074;-66
2021/10/23 12:55:37;;;;;;;0.80;0.63;;;5.90;99.90;;;;;;4976521;28;20090;-72
2021/10/23 12:58:05;;;;;;;0.90;0.70;;;5.90;99.90;;;;;;4980179;28;20055;-64
2021/10/23 13:00:32;;;;;;;2.17;1.00;;;5.80;99.90;;;;;;4976108;28;20128;-64
2021/10/23 13:02:59;;;;;;;2.67;0.93;;;5.90;99.90;;;;;;4977373;28;20383;-67
2021/10/23 13:05:27;;;;;;;2.30;0.80;;;5.90;99.90;;;;;;4981471;28;20054;-68
2021/10/23 13:07:54;;;;;;;2.58;0.90;;;5.90;99.90;;;;;;4992258;28;20058;-66
2021/10/23 13:10:21;;;;;;;1.17;0.68;;;5.90;99.90;;;;;;4978734;28;20083;-66
2021/10/23 13:12:50;;;;;;;0.80;0.77;;;5.80;99.90;;;;;;4978121;28;20039;-65
2021/10/23 13:15:17;;;;;;;1.67;1.10;;;5.80;99.90;;;;;;4975412;28;20054;-69
2021/10/23 13:17:45;;;;;;;0.80;0.68;;;5.90;99.90;;;;;;4976651;28;20137;-70
2021/10/23 13:20:13;;;;;;;3.22;0.85;;;5.90;99.90;;;;;;4973112;28;20609;-67